sensor_id;sensor_type;location;lat;lon;timestamp;pressure;altitude;pressure_sealevel;temperature;humidity
54592;BME280;40488;48.558;18.150;2022-11-02T00:01:00;100126.00;;;11.46;90.09
54592;BME280;40488;48.558;18.150;2022-11-02T00:03:30;100127.69;;;11.44;89.97
54592;BME280;40488;48.558;18.150;2022-11-02T00:05:58;100126.81;;;11.40;89.85
54592;BME280;40488;48.558;18.150;2022-11-02T00:08:26;100129.38;;;11.40;90.15
54592;BME280;40488;48.558;18.150;2022-11-02T00:10:55;100128.53;;;11.40;90.18
54592;BME280;40488;48.558;18.150;2022-11-02T00:13:23;100131.97;;;11.42;90.32
54592;BME280;40488;48.558;18.150;2022-11-02T00:15:51;100126.84;;;11.42;90.25
54592;BME280;40488;48.558;18.150;2022-11-02T00:18:22;100123.44;;;11.37;90.35
54592;BME280;40488;48.558;18.150;2022-11-02T00:20:50;100120.00;;;11.32;90.31
54592;BME280;40488;48.558;18.150;2022-11-02T00:23:19;100117.41;;;11.30;90.21
54592;BME280;40488;48.558;18.150;2022-11-02T00:25:47;100123.38;;;11.28;90.42
54592;BME280;40488;48.558;18.150;2022-11-02T00:28:16;100119.97;;;11.26;90.31
54592;BME280;40488;48.558;18.150;2022-11-02T00:30:45;100113.13;;;11.22;90.41
54592;BME280;40488;48.558;18.150;2022-11-02T00:33:14;100119.94;;;11.20;90.33
54592;BME280;40488;48.558;18.150;2022-11-02T00:35:43;100106.31;;;11.18;90.48
54592;BME280;40488;48.558;18.150;2022-11-02T00:38:13;100112.25;;;11.18;90.52
54592;BME280;40488;48.558;18.150;2022-11-02T00:40:43;100110.56;;;11.14;90.29
54592;BME280;40488;48.558;18.150;2022-11-02T00:43:11;100117.34;;;11.09;90.41
54592;BME280;40488;48.558;18.150;2022-11-02T00:45:40;100105.41;;;11.05;90.28
54592;BME280;40488;48.558;18.150;2022-11-02T00:48:08;100106.22;;;11.00;90.24
54592;BME280;40488;48.558;18.150;2022-11-02T00:50:38;100103.66;;;10.94;90.08
54592;BME280;40488;48.558;18.150;2022-11-02T00:53:08;100098.53;;;10.92;90.34
54592;BME280;40488;48.558;18.150;2022-11-02T00:55:41;100102.78;;;10.89;90.20
54592;BME280;40488;48.558;18.150;2022-11-02T00:58:10;100105.31;;;10.86;90.11
54592;BME280;40488;48.558;18.150;2022-11-02T01:00:38;100101.06;;;10.88;90.25
54592;BME280;40488;48.558;18.150;2022-11-02T01:03:08;100089.16;;;10.90;90.97
54592;BME280;40488;48.558;18.150;2022-11-02T01:05:37;100095.97;;;10.88;90.17
54592;BME280;40488;48.558;18.150;2022-11-02T01:08:05;100087.44;;;10.86;90.56
54592;BME280;40488;48.558;18.150;2022-11-02T01:10:34;100081.50;;;10.87;90.38
54592;BME280;40488;48.558;18.150;2022-11-02T01:13:03;100085.72;;;10.82;90.33
54592;BME280;40488;48.558;18.150;2022-11-02T01:15:31;100082.28;;;10.75;90.51
54592;BME280;40488;48.558;18.150;2022-11-02T01:17:59;100084.00;;;10.74;90.49
54592;BME280;40488;48.558;18.150;2022-11-02T01:20:29;100083.16;;;10.80;90.49
54592;BME280;40488;48.558;18.150;2022-11-02T01:22:57;100087.44;;;10.80;90.54
54592;BME280;40488;48.558;18.150;2022-11-02T01:25:25;100086.53;;;10.77;90.42
54592;BME280;40488;48.558;18.150;2022-11-02T01:27:55;100094.19;;;10.77;90.81
54592;BME280;40488;48.558;18.150;2022-11-02T01:30:24;100089.09;;;10.77;90.63
54592;BME280;40488;48.558;18.150;2022-11-02T01:32:52;100090.81;;;10.78;90.48
54592;BME280;40488;48.558;18.150;2022-11-02T01:35:20;100089.94;;;10.75;90.72
54592;BME280;40488;48.558;18.150;2022-11-02T01:37:49;100094.19;;;10.71;90.71
54592;BME280;40488;48.558;18.150;2022-11-02T01:40:17;100095.88;;;10.69;90.80
54592;BME280;40488;48.558;18.150;2022-11-02T01:42:46;100091.56;;;10.61;90.64
54592;BME280;40488;48.558;18.150;2022-11-02T01:45:16;100094.06;;;10.53;90.50
54592;BME280;40488;48.558;18.150;2022-11-02T01:47:44;100089.81;;;10.48;90.58
54592;BME280;40488;48.558;18.150;2022-11-02T01:50:15;100086.38;;;10.43;90.57
54592;BME280;40488;48.558;18.150;2022-11-02T01:52:46;100099.06;;;10.35;90.49
54592;BME280;40488;48.558;18.150;2022-11-02T01:55:15;100095.63;;;10.30;90.50
54592;BME280;40488;48.558;18.150;2022-11-02T01:57:47;100106.66;;;10.26;90.47
54592;BME280;40488;48.558;18.150;2022-11-02T02:00:18;100111.69;;;10.19;90.32
54592;BME280;40488;48.558;18.150;2022-11-02T02:02:48;100107.47;;;10.21;90.65
54592;BME280;40488;48.558;18.150;2022-11-02T02:05:18;100116.00;;;10.27;90.58
54592;BME280;40488;48.558;18.150;2022-11-02T02:07:49;100113.50;;;10.32;90.42
54592;BME280;40488;48.558;18.150;2022-11-02T02:10:18;100122.84;;;10.34;90.45
54592;BME280;40488;48.558;18.150;2022-11-02T02:12:48;100118.59;;;10.30;90.68
54592;BME280;40488;48.558;18.150;2022-11-02T02:15:20;100126.22;;;10.26;90.74
54592;BME280;40488;48.558;18.150;2022-11-02T02:17:52;100126.19;;;10.21;90.77
54592;BME280;40488;48.558;18.150;2022-11-02T02:20:26;100123.63;;;10.21;90.61
54592;BME280;40488;48.558;18.150;2022-11-02T02:23:17;100124.50;;;10.23;90.64
54592;BME280;40488;48.558;18.150;2022-11-02T02:28:31;100123.56;;;10.12;90.23
54592;BME280;40488;48.558;18.150;2022-11-02T02:31:07;100127.72;;;10.07;90.51
54592;BME280;40488;48.558;18.150;2022-11-02T02:33:39;100130.25;;;10.05;90.76
54592;BME280;40488;48.558;18.150;2022-11-02T02:36:12;100126.88;;;10.08;90.86
54592;BME280;40488;48.558;18.150;2022-11-02T02:38:43;100127.66;;;10.01;90.62
54592;BME280;40488;48.558;18.150;2022-11-02T02:41:13;100131.88;;;9.94;90.22
54592;BME280;40488;48.558;18.150;2022-11-02T02:43:45;100134.41;;;9.93;90.68
54592;BME280;40488;48.558;18.150;2022-11-02T02:46:17;100136.94;;;9.91;90.07
54592;BME280;40488;48.558;18.150;2022-11-02T02:48:46;100142.03;;;9.88;90.43
54592;BME280;40488;48.558;18.150;2022-11-02T02:51:17;100147.09;;;9.87;89.99
54592;BME280;40488;48.558;18.150;2022-11-02T02:53:47;100136.03;;;9.85;90.35
54592;BME280;40488;48.558;18.150;2022-11-02T02:56:20;100133.50;;;9.88;90.36
54592;BME280;40488;48.558;18.150;2022-11-02T02:58:52;100130.94;;;9.85;90.22
54592;BME280;40488;48.558;18.150;2022-11-02T03:01:25;100131.72;;;9.76;90.14
54592;BME280;40488;48.558;18.150;2022-11-02T03:03:55;100129.09;;;9.72;89.72
54592;BME280;40488;48.558;18.150;2022-11-02T03:06:25;100128.19;;;9.65;89.74
54592;BME280;40488;48.558;18.150;2022-11-02T03:09:01;100133.31;;;9.67;89.72
54592;BME280;40488;48.558;18.150;2022-11-02T03:11:31;100135.03;;;9.72;89.88
54592;BME280;40488;48.558;18.150;2022-11-02T03:14:07;100139.31;;;9.75;90.13
54592;BME280;40488;48.558;18.150;2022-11-02T03:16:46;100137.63;;;9.74;90.29
54592;BME280;40488;48.558;18.150;2022-11-02T03:19:23;100146.09;;;9.73;90.51
54592;BME280;40488;48.558;18.150;2022-11-02T03:21:54;100134.22;;;9.75;90.15
54592;BME280;40488;48.558;18.150;2022-11-02T03:24:26;100134.25;;;9.78;90.52
54592;BME280;40488;48.558;18.150;2022-11-02T03:27:01;100136.00;;;9.82;90.39
54592;BME280;40488;48.558;18.150;2022-11-02T03:29:37;100142.84;;;9.86;90.79
54592;BME280;40488;48.558;18.150;2022-11-02T03:32:08;100144.53;;;9.87;90.52
54592;BME280;40488;48.558;18.150;2022-11-02T03:34:38;100149.63;;;9.87;91.00
54592;BME280;40488;48.558;18.150;2022-11-02T03:37:12;100142.03;;;9.88;90.58
54592;BME280;40488;48.558;18.150;2022-11-02T03:39:45;100147.13;;;9.88;90.98
54592;BME280;40488;48.558;18.150;2022-11-02T03:42:16;100158.09;;;9.84;90.69
54592;BME280;40488;48.558;18.150;2022-11-02T03:44:52;100170.00;;;9.82;91.10
54592;BME280;40488;48.558;18.150;2022-11-02T03:47:23;100164.94;;;9.87;91.04
54592;BME280;40488;48.558;18.150;2022-11-02T03:50:00;100162.38;;;9.85;90.84
54592;BME280;40488;48.558;18.150;2022-11-02T03:52:29;100170.00;;;9.84;91.34
54592;BME280;40488;48.558;18.150;2022-11-02T03:54:59;100175.94;;;9.83;91.15
54592;BME280;40488;48.558;18.150;2022-11-02T03:57:35;100181.88;;;9.82;91.39
54592;BME280;40488;48.558;18.150;2022-11-02T04:00:09;100180.19;;;9.81;90.95
54592;BME280;40488;48.558;18.150;2022-11-02T04:02:44;100183.56;;;9.80;90.98
54592;BME280;40488;48.558;18.150;2022-11-02T04:05:14;100178.47;;;9.80;91.37
54592;BME280;40488;48.558;18.150;2022-11-02T04:07:44;100180.09;;;9.75;91.38
54592;BME280;40488;48.558;18.150;2022-11-02T04:10:26;100182.56;;;9.66;91.22
54592;BME280;40488;48.558;18.150;2022-11-02T04:12:55;100190.16;;;9.61;91.37
54592;BME280;40488;48.558;18.150;2022-11-02T04:15:35;100192.75;;;9.64;91.39
54592;BME280;40488;48.558;18.150;2022-11-02T04:18:03;100195.34;;;9.72;91.63
54592;BME280;40488;48.558;18.150;2022-11-02T04:20:41;100196.25;;;9.74;91.87
54592;BME280;40488;48.558;18.150;2022-11-02T04:23:10;100186.09;;;9.78;91.60
54592;BME280;40488;48.558;18.150;2022-11-02T04:25:51;100192.06;;;9.79;91.75
54592;BME280;40488;48.558;18.150;2022-11-02T04:28:39;100197.97;;;9.78;91.80
54592;BME280;40488;48.558;18.150;2022-11-02T04:31:10;100193.75;;;9.80;91.72
54592;BME280;40488;48.558;18.150;2022-11-02T04:33:40;100197.22;;;9.85;91.91
54592;BME280;40488;48.558;18.150;2022-11-02T04:36:10;100192.16;;;9.88;91.92
54592;BME280;40488;48.558;18.150;2022-11-02T04:38:40;100193.00;;;9.90;92.23
54592;BME280;40488;48.558;18.150;2022-11-02T04:41:33;100190.47;;;9.90;92.03
54592;BME280;40488;48.558;18.150;2022-11-02T04:44:22;100195.63;;;9.96;92.07
54592;BME280;40488;48.558;18.150;2022-11-02T04:47:02;100199.06;;;9.98;92.08
54592;BME280;40488;48.558;18.150;2022-11-02T04:49:33;100195.63;;;9.96;91.70
54592;BME280;40488;48.558;18.150;2022-11-02T04:52:05;100196.47;;;9.95;92.32
54592;BME280;40488;48.558;18.150;2022-11-02T04:54:35;100200.72;;;9.96;92.20
54592;BME280;40488;48.558;18.150;2022-11-02T04:57:06;100193.97;;;9.98;92.04
54592;BME280;40488;48.558;18.150;2022-11-02T04:59:35;100207.56;;;10.00;92.25
54592;BME280;40488;48.558;18.150;2022-11-02T05:02:07;100202.47;;;10.00;92.14
54592;BME280;40488;48.558;18.150;2022-11-02T05:04:36;100199.06;;;10.01;92.07
54592;BME280;40488;48.558;18.150;2022-11-02T05:07:05;100199.94;;;10.01;92.23
54592;BME280;40488;48.558;18.150;2022-11-02T05:09:37;100199.06;;;10.01;92.15
54592;BME280;40488;48.558;18.150;2022-11-02T05:12:09;100199.88;;;9.98;92.40
54592;BME280;40488;48.558;18.150;2022-11-02T05:14:38;100205.03;;;10.01;92.10
54592;BME280;40488;48.558;18.150;2022-11-02T05:17:09;100199.06;;;10.01;92.82
54592;BME280;40488;48.558;18.150;2022-11-02T05:19:39;100199.09;;;10.02;92.43
54592;BME280;40488;48.558;18.150;2022-11-02T05:22:08;100212.69;;;10.03;92.70
54592;BME280;40488;48.558;18.150;2022-11-02T05:24:37;100198.25;;;10.03;92.56
54592;BME280;40488;48.558;18.150;2022-11-02T05:27:08;100207.63;;;10.06;92.81
54592;BME280;40488;48.558;18.150;2022-11-02T05:29:37;100211.03;;;10.05;92.56
54592;BME280;40488;48.558;18.150;2022-11-02T05:32:06;100211.88;;;10.07;92.44
54592;BME280;40488;48.558;18.150;2022-11-02T05:34:36;100212.75;;;10.09;92.72
54592;BME280;40488;48.558;18.150;2022-11-02T05:37:05;100217.94;;;10.12;92.90
54592;BME280;40488;48.558;18.150;2022-11-02T05:39:33;100216.16;;;10.11;92.49
54592;BME280;40488;48.558;18.150;2022-11-02T05:42:03;100218.75;;;10.13;92.67
54592;BME280;40488;48.558;18.150;2022-11-02T05:44:31;100226.41;;;10.13;92.54
54592;BME280;40488;48.558;18.150;2022-11-02T05:47:00;100217.03;;;10.10;92.86
54592;BME280;40488;48.558;18.150;2022-11-02T05:49:28;100222.97;;;10.09;92.98
54592;BME280;40488;48.558;18.150;2022-11-02T05:51:58;100233.16;;;10.09;93.07
54592;BME280;40488;48.558;18.150;2022-11-02T05:54:26;100226.44;;;10.14;93.03
54592;BME280;40488;48.558;18.150;2022-11-02T05:56:55;100224.72;;;10.13;93.04
54592;BME280;40488;48.558;18.150;2022-11-02T05:59:24;100223.84;;;10.13;93.03
54592;BME280;40488;48.558;18.150;2022-11-02T06:01:52;100234.97;;;10.16;92.99
54592;BME280;40488;48.558;18.150;2022-11-02T06:04:21;100245.19;;;10.19;93.31
54592;BME280;40488;48.558;18.150;2022-11-02T06:06:49;100250.31;;;10.22;93.32
54592;BME280;40488;48.558;18.150;2022-11-02T06:09:19;100253.75;;;10.26;93.38
54592;BME280;40488;48.558;18.150;2022-11-02T06:11:47;100258.03;;;10.30;93.52
54592;BME280;40488;48.558;18.150;2022-11-02T06:14:15;100263.19;;;10.33;93.40
54592;BME280;40488;48.558;18.150;2022-11-02T06:16:44;100267.47;;;10.35;93.36
54592;BME280;40488;48.558;18.150;2022-11-02T06:19:12;100269.19;;;10.39;93.63
54592;BME280;40488;48.558;18.150;2022-11-02T06:21:45;100267.53;;;10.41;93.52
54592;BME280;40488;48.558;18.150;2022-11-02T06:24:14;100267.56;;;10.47;93.62
54592;BME280;40488;48.558;18.150;2022-11-02T06:26:44;100277.81;;;10.50;93.52
54592;BME280;40488;48.558;18.150;2022-11-02T06:29:13;100281.22;;;10.52;93.49
54592;BME280;40488;48.558;18.150;2022-11-02T06:31:41;100276.16;;;10.55;93.48
54592;BME280;40488;48.558;18.150;2022-11-02T06:34:09;100277.91;;;10.61;93.43
54592;BME280;40488;48.558;18.150;2022-11-02T06:36:37;100269.41;;;10.63;93.26
54592;BME280;40488;48.558;18.150;2022-11-02T06:39:06;100279.69;;;10.69;93.31
54592;BME280;40488;48.558;18.150;2022-11-02T06:41:34;100277.16;;;10.74;93.31
54592;BME280;40488;48.558;18.150;2022-11-02T06:44:04;100277.16;;;10.75;93.14
54592;BME280;40488;48.558;18.150;2022-11-02T06:46:33;100279.75;;;10.78;92.90
54592;BME280;40488;48.558;18.150;2022-11-02T06:49:01;100279.75;;;10.78;92.90
54592;BME280;40488;48.558;18.150;2022-11-02T06:51:29;100285.75;;;10.82;92.92
54592;BME280;40488;48.558;18.150;2022-11-02T06:53:57;100286.63;;;10.86;92.75
54592;BME280;40488;48.558;18.150;2022-11-02T06:56:34;100284.06;;;10.87;92.57
54592;BME280;40488;48.558;18.150;2022-11-02T06:59:04;100286.66;;;10.90;92.70
54592;BME280;40488;48.558;18.150;2022-11-02T07:01:32;100285.78;;;10.90;92.45
54592;BME280;40488;48.558;18.150;2022-11-02T07:04:01;100292.63;;;10.89;92.33
54592;BME280;40488;48.558;18.150;2022-11-02T07:06:29;100284.97;;;10.89;92.31
54592;BME280;40488;48.558;18.150;2022-11-02T07:08:57;100288.34;;;10.90;92.23
54592;BME280;40488;48.558;18.150;2022-11-02T07:11:26;100296.00;;;10.88;92.22
54592;BME280;40488;48.558;18.150;2022-11-02T07:13:54;100293.41;;;10.84;92.12
54592;BME280;40488;48.558;18.150;2022-11-02T07:16:24;100286.59;;;10.83;92.01
54592;BME280;40488;48.558;18.150;2022-11-02T07:18:53;100288.38;;;10.93;91.97
54592;BME280;40488;48.558;18.150;2022-11-02T07:21:21;100282.56;;;11.13;92.20
54592;BME280;40488;48.558;18.150;2022-11-02T07:23:49;100273.31;;;11.32;91.97
54592;BME280;40488;48.558;18.150;2022-11-02T07:26:17;100274.25;;;11.46;91.74
54592;BME280;40488;48.558;18.150;2022-11-02T07:28:46;100283.66;;;11.59;91.39
54592;BME280;40488;48.558;18.150;2022-11-02T07:31:14;100282.06;;;11.70;91.12
54592;BME280;40488;48.558;18.150;2022-11-02T07:33:44;100283.81;;;11.83;91.20
54592;BME280;40488;48.558;18.150;2022-11-02T07:36:12;100284.72;;;12.00;90.82
54592;BME280;40488;48.558;18.150;2022-11-02T07:38:41;100280.53;;;12.12;90.24
54592;BME280;40488;48.558;18.150;2022-11-02T07:41:09;100286.50;;;12.24;90.24
54592;BME280;40488;48.558;18.150;2022-11-02T07:43:37;100278.00;;;12.34;89.69
54592;BME280;40488;48.558;18.150;2022-11-02T07:46:21;100289.09;;;12.44;88.80
54592;BME280;40488;48.558;18.150;2022-11-02T07:48:51;100284.00;;;12.50;88.56
54592;BME280;40488;48.558;18.150;2022-11-02T07:51:20;100289.13;;;12.62;88.59
54592;BME280;40488;48.558;18.150;2022-11-02T07:53:48;100287.44;;;12.76;88.08
54592;BME280;40488;48.558;18.150;2022-11-02T07:56:16;100283.16;;;12.86;87.53
54592;BME280;40488;48.558;18.150;2022-11-02T07:58:45;100283.16;;;12.95;87.63
54592;BME280;40488;48.558;18.150;2022-11-02T08:01:13;100283.13;;;12.99;86.59
54592;BME280;40488;48.558;18.150;2022-11-02T08:03:41;100279.72;;;13.05;86.60
54592;BME280;40488;48.558;18.150;2022-11-02T08:06:11;100284.88;;;13.14;86.43
54592;BME280;40488;48.558;18.150;2022-11-02T08:08:39;100289.13;;;13.28;86.02
54592;BME280;40488;48.558;18.150;2022-11-02T08:11:08;100281.41;;;13.43;85.38
54592;BME280;40488;48.558;18.150;2022-11-02T08:13:37;100283.06;;;13.46;85.22
54592;BME280;40488;48.558;18.150;2022-11-02T08:16:05;100276.19;;;13.59;84.60
54592;BME280;40488;48.558;18.150;2022-11-02T08:18:34;100285.56;;;13.72;84.35
54592;BME280;40488;48.558;18.150;2022-11-02T08:21:02;100284.66;;;13.86;84.07
54592;BME280;40488;48.558;18.150;2022-11-02T08:23:32;100288.03;;;13.94;83.91
54592;BME280;40488;48.558;18.150;2022-11-02T08:26:01;100283.72;;;14.04;83.40
54592;BME280;40488;48.558;18.150;2022-11-02T08:28:29;100271.72;;;14.06;82.97
54592;BME280;40488;48.558;18.150;2022-11-02T08:31:01;100270.84;;;14.10;82.08
54592;BME280;40488;48.558;18.150;2022-11-02T08:33:29;100267.41;;;14.16;81.72
54592;BME280;40488;48.558;18.150;2022-11-02T08:36:00;100273.34;;;14.21;81.08
54592;BME280;40488;48.558;18.150;2022-11-02T08:38:28;100268.22;;;14.22;80.84
54592;BME280;40488;48.558;18.150;2022-11-02T08:40:58;100267.28;;;14.35;80.59
54592;BME280;40488;48.558;18.150;2022-11-02T08:43:26;100267.22;;;14.46;80.11
54592;BME280;40488;48.558;18.150;2022-11-02T08:45:56;100273.97;;;14.60;79.88
54592;BME280;40488;48.558;18.150;2022-11-02T08:48:43;100262.78;;;14.70;79.47
54592;BME280;40488;48.558;18.150;2022-11-02T08:51:11;100271.22;;;14.82;78.88
54592;BME280;40488;48.558;18.150;2022-11-02T08:53:40;100265.16;;;14.89;78.50
54592;BME280;40488;48.558;18.150;2022-11-02T08:56:16;100261.63;;;15.00;78.05
54592;BME280;40488;48.558;18.150;2022-11-02T08:58:44;100259.00;;;15.08;77.57
54592;BME280;40488;48.558;18.150;2022-11-02T09:01:12;100256.34;;;15.15;77.22
54592;BME280;40488;48.558;18.150;2022-11-02T09:03:40;100265.75;;;15.18;76.98
54592;BME280;40488;48.558;18.150;2022-11-02T09:06:09;100262.22;;;15.28;76.35
54592;BME280;40488;48.558;18.150;2022-11-02T09:08:37;100258.63;;;15.44;76.52
54592;BME280;40488;48.558;18.150;2022-11-02T09:11:06;100262.22;;;15.28;75.90
54592;BME280;40488;48.558;18.150;2022-11-02T09:13:36;100265.59;;;15.33;76.00
54592;BME280;40488;48.558;18.150;2022-11-02T09:16:05;100259.59;;;15.35;75.70
54592;BME280;40488;48.558;18.150;2022-11-02T09:18:33;100262.78;;;15.56;75.86
54592;BME280;40488;48.558;18.150;2022-11-02T09:21:01;100261.75;;;15.73;75.47
54592;BME280;40488;48.558;18.150;2022-11-02T09:23:30;100261.66;;;15.79;75.04
54592;BME280;40488;48.558;18.150;2022-11-02T09:25:59;100261.59;;;15.85;74.74
54592;BME280;40488;48.558;18.150;2022-11-02T09:28:27;100259.75;;;15.93;74.44
54592;BME280;40488;48.558;18.150;2022-11-02T09:30:57;100260.38;;;16.12;74.55
54592;BME280;40488;48.558;18.150;2022-11-02T09:33:25;100260.91;;;16.34;74.30
54592;BME280;40488;48.558;18.150;2022-11-02T09:35:59;100259.09;;;16.39;73.98
54592;BME280;40488;48.558;18.150;2022-11-02T09:38:28;100258.13;;;16.47;73.54
54592;BME280;40488;48.558;18.150;2022-11-02T09:41:00;100260.66;;;16.49;73.21
54592;BME280;40488;48.558;18.150;2022-11-02T09:43:32;100258.91;;;16.55;72.44
54592;BME280;40488;48.558;18.150;2022-11-02T09:46:08;100264.81;;;16.62;72.21
54592;BME280;40488;48.558;18.150;2022-11-02T09:48:39;100259.66;;;16.62;72.29
54592;BME280;40488;48.558;18.150;2022-11-02T09:51:10;100258.63;;;16.72;72.11
54592;BME280;40488;48.558;18.150;2022-11-02T09:53:42;100259.28;;;16.83;72.05
54592;BME280;40488;48.558;18.150;2022-11-02T09:56:13;100259.81;;;17.03;72.04
54592;BME280;40488;48.558;18.150;2022-11-02T09:58:46;100259.69;;;17.09;71.71
54592;BME280;40488;48.558;18.150;2022-11-02T10:01:21;100251.91;;;17.12;71.17
54592;BME280;40488;48.558;18.150;2022-11-02T10:03:57;100254.13;;;17.30;71.66
54592;BME280;40488;48.558;18.150;2022-11-02T10:06:34;100252.22;;;17.41;71.57
54592;BME280;40488;48.558;18.150;2022-11-02T10:09:05;100246.94;;;17.46;71.13
54592;BME280;40488;48.558;18.150;2022-11-02T10:11:39;100244.06;;;17.61;71.12
54592;BME280;40488;48.558;18.150;2022-11-02T10:14:11;100243.25;;;17.61;70.62
54592;BME280;40488;48.558;18.150;2022-11-02T10:16:45;100234.81;;;17.50;70.56
54592;BME280;40488;48.558;18.150;2022-11-02T10:19:17;100234.75;;;17.56;70.45
54592;BME280;40488;48.558;18.150;2022-11-02T10:21:51;100231.47;;;17.46;70.48
54592;BME280;40488;48.558;18.150;2022-11-02T10:24:22;100227.06;;;17.53;70.41
54592;BME280;40488;48.558;18.150;2022-11-02T10:26:54;100220.78;;;17.66;70.02
54592;BME280;40488;48.558;18.150;2022-11-02T10:29:27;100222.91;;;17.87;69.92
54592;BME280;40488;48.558;18.150;2022-11-02T10:31:59;100215.41;;;18.13;69.67
54592;BME280;40488;48.558;18.150;2022-11-02T10:34:28;100226.34;;;18.24;69.38
54592;BME280;40488;48.558;18.150;2022-11-02T10:37:01;100217.66;;;18.28;68.87
54592;BME280;40488;48.558;18.150;2022-11-02T10:39:34;100214.50;;;18.14;68.50
54592;BME280;40488;48.558;18.150;2022-11-02T10:42:10;100210.13;;;18.18;68.53
54592;BME280;40488;48.558;18.150;2022-11-02T10:47:24;100208.38;;;18.56;68.25
54592;BME280;40488;48.558;18.150;2022-11-02T10:50:00;100202.91;;;18.68;67.52
54592;BME280;40488;48.558;18.150;2022-11-02T10:52:38;100198.94;;;18.88;67.47
54592;BME280;40488;48.558;18.150;2022-11-02T10:55:12;100189.88;;;19.04;67.36
54592;BME280;40488;48.558;18.150;2022-11-02T10:57:44;100192.22;;;19.13;67.03
54592;BME280;40488;48.558;18.150;2022-11-02T11:05:33;100180.06;;;19.15;65.24
54592;BME280;40488;48.558;18.150;2022-11-02T11:08:03;100181.13;;;19.08;64.41
54592;BME280;40488;48.558;18.150;2022-11-02T11:10:34;100185.56;;;19.35;64.34
54592;BME280;40488;48.558;18.150;2022-11-02T11:13:04;100182.94;;;19.38;64.04
54592;BME280;40488;48.558;18.150;2022-11-02T11:15:54;100185.44;;;19.41;63.74
54592;BME280;40488;48.558;18.150;2022-11-02T11:18:22;100187.13;;;19.42;63.56
54592;BME280;40488;48.558;18.150;2022-11-02T11:21:12;100188.81;;;19.43;63.84
54592;BME280;40488;48.558;18.150;2022-11-02T11:23:40;100184.81;;;19.62;63.88
54592;BME280;40488;48.558;18.150;2022-11-02T11:26:11;100184.44;;;19.74;63.15
54592;BME280;40488;48.558;18.150;2022-11-02T11:28:53;100184.34;;;19.77;63.30
54592;BME280;40488;48.558;18.150;2022-11-02T11:31:22;100181.63;;;19.82;62.83
54592;BME280;40488;48.558;18.150;2022-11-02T11:33:51;100182.00;;;19.97;62.97
54592;BME280;40488;48.558;18.150;2022-11-02T11:36:23;100186.88;;;20.06;62.58
54592;BME280;40488;48.558;18.150;2022-11-02T11:38:57;100181.41;;;20.16;62.52
54592;BME280;40488;48.558;18.150;2022-11-02T11:41:27;100170.28;;;20.40;62.17
54592;BME280;40488;48.558;18.150;2022-11-02T11:43:56;100175.75;;;20.57;62.23
54592;BME280;40488;48.558;18.150;2022-11-02T11:46:37;100174.31;;;20.75;62.24
54592;BME280;40488;48.558;18.150;2022-11-02T11:49:12;100158.66;;;20.76;62.17
54592;BME280;40488;48.558;18.150;2022-11-02T11:51:46;100167.63;;;20.67;62.12
54592;BME280;40488;48.558;18.150;2022-11-02T11:54:17;100162.22;;;20.23;62.28
54592;BME280;40488;48.558;18.150;2022-11-02T11:56:46;100162.38;;;20.17;61.92
54592;BME280;40488;48.558;18.150;2022-11-02T11:59:18;100170.59;;;20.03;61.66
54592;BME280;40488;48.558;18.150;2022-11-02T12:01:48;100159.00;;;20.15;61.09
54592;BME280;40488;48.558;18.150;2022-11-02T12:07:05;100154.53;;;20.46;59.90
54592;BME280;40488;48.558;18.150;2022-11-02T12:09:36;100153.06;;;20.63;59.94
54592;BME280;40488;48.558;18.150;2022-11-02T12:12:10;100154.06;;;20.84;58.35
54592;BME280;40488;48.558;18.150;2022-11-02T12:14:46;100163.34;;;20.91;56.53
54592;BME280;40488;48.558;18.150;2022-11-02T12:20:01;100159.94;;;20.89;54.81
54592;BME280;40488;48.558;18.150;2022-11-02T12:22:37;100155.81;;;20.84;54.54
54592;BME280;40488;48.558;18.150;2022-11-02T12:27:56;100155.66;;;20.88;54.84
54592;BME280;40488;48.558;18.150;2022-11-02T12:30:29;100147.44;;;21.00;54.84
54592;BME280;40488;48.558;18.150;2022-11-02T12:33:04;100143.63;;;21.10;54.59
54592;BME280;40488;48.558;18.150;2022-11-02T12:35:44;100150.94;;;20.99;54.25
54592;BME280;40488;48.558;18.150;2022-11-02T12:41:00;100152.00;;;21.18;54.36
54592;BME280;40488;48.558;18.150;2022-11-02T12:43:35;100154.72;;;21.15;53.90
54592;BME280;40488;48.558;18.150;2022-11-02T12:46:08;100152.84;;;20.94;54.74
54592;BME280;40488;48.558;18.150;2022-11-02T12:48:40;100148.84;;;20.61;54.87
54592;BME280;40488;48.558;18.150;2022-11-02T12:51:10;100156.81;;;20.29;55.20
54592;BME280;40488;48.558;18.150;2022-11-02T12:53:41;100156.56;;;20.08;56.47
54592;BME280;40488;48.558;18.150;2022-11-02T12:56:15;100158.06;;;19.89;56.67
54592;BME280;40488;48.558;18.150;2022-11-02T12:58:46;100161.63;;;19.85;56.83
54592;BME280;40488;48.558;18.150;2022-11-02T13:01:17;100160.06;;;19.81;56.78
54592;BME280;40488;48.558;18.150;2022-11-02T13:03:49;100165.69;;;19.66;56.69
54592;BME280;40488;48.558;18.150;2022-11-02T13:06:20;100163.53;;;19.51;56.96
54592;BME280;40488;48.558;18.150;2022-11-02T13:08:52;100164.53;;;19.47;57.63
54592;BME280;40488;48.558;18.150;2022-11-02T13:11:24;100164.25;;;19.56;57.73
54592;BME280;40488;48.558;18.150;2022-11-02T13:13:56;100162.09;;;19.70;58.11
54592;BME280;40488;48.558;18.150;2022-11-02T13:16:29;100164.03;;;19.64;58.04
54592;BME280;40488;48.558;18.150;2022-11-02T13:19:00;100164.34;;;19.53;57.81
54592;BME280;40488;48.558;18.150;2022-11-02T13:21:31;100164.59;;;19.44;58.34
54592;BME280;40488;48.558;18.150;2022-11-02T13:24:09;100162.00;;;19.46;58.54